sensor_id;sensor_type;location;lat;lon;timestamp;P1;durP1;ratioP1;P2;durP2;ratioP2
18084;SDS011;9169;44.492;11.372;2023-07-13T00:01:09;26.40;;;7.97;;
18084;SDS011;9169;44.492;11.372;2023-07-13T00:03:37;26.53;;;7.20;;
18084;SDS011;9169;44.492;11.372;2023-07-13T00:06:09;21.27;;;7.10;;
18084;SDS011;9169;44.492;11.372;2023-07-13T00:08:38;22.50;;;7.60;;
18084;SDS011;9169;44.492;11.372;2023-07-13T00:11:06;26.30;;;7.43;;
18084;SDS011;9169;44.492;11.372;2023-07-13T00:13:37;22.90;;;8.73;;
18084;SDS011;9169;44.492;11.372;2023-07-13T00:16:07;21.97;;;8.07;;
18084;SDS011;9169;44.492;11.372;2023-07-13T00:18:36;26.23;;;8.07;;
18084;SDS011;9169;44.492;11.372;2023-07-13T00:21:05;22.97;;;8.47;;
18084;SDS011;9169;44.492;11.372;2023-07-13T00:23:36;24.33;;;8.33;;
18084;SDS011;9169;44.492;11.372;2023-07-13T00:26:07;21.53;;;7.73;;
18084;SDS011;9169;44.492;11.372;2023-07-13T00:28:38;26.23;;;8.60;;
18084;SDS011;9169;44.492;11.372;2023-07-13T00:31:08;23.33;;;7.63;;
18084;SDS011;9169;44.492;11.372;2023-07-13T00:33:37;24.00;;;8.20;;
18084;SDS011;9169;44.492;11.372;2023-07-13T00:36:07;29.23;;;8.30;;
18084;SDS011;9169;44.492;11.372;2023-07-13T00:38:38;26.00;;;7.90;;
18084;SDS011;9169;44.492;11.372;2023-07-13T00:41:07;25.40;;;8.27;;
18084;SDS011;9169;44.492;11.372;2023-07-13T00:43:36;28.73;;;8.47;;
18084;SDS011;9169;44.492;11.372;2023-07-13T00:46:16;28.60;;;7.70;;
18084;SDS011;9169;44.492;11.372;2023-07-13T00:48:48;23.20;;;7.93;;
18084;SDS011;9169;44.492;11.372;2023-07-13T00:51:19;23.90;;;7.57;;
18084;SDS011;9169;44.492;11.372;2023-07-13T00:53:53;25.87;;;7.73;;
18084;SDS011;9169;44.492;11.372;2023-07-13T00:56:24;24.67;;;7.50;;
18084;SDS011;9169;44.492;11.372;2023-07-13T00:58:53;25.47;;;7.53;;
18084;SDS011;9169;44.492;11.372;2023-07-13T01:01:23;23.17;;;8.10;;
18084;SDS011;9169;44.492;11.372;2023-07-13T01:03:51;26.57;;;7.90;;
18084;SDS011;9169;44.492;11.372;2023-07-13T01:06:20;33.77;;;8.27;;
18084;SDS011;9169;44.492;11.372;2023-07-13T01:08:49;40.37;;;8.33;;
18084;SDS011;9169;44.492;11.372;2023-07-13T01:11:20;24.63;;;8.40;;
18084;SDS011;9169;44.492;11.372;2023-07-13T01:13:49;30.13;;;8.00;;
18084;SDS011;9169;44.492;11.372;2023-07-13T01:16:26;24.33;;;8.83;;
18084;SDS011;9169;44.492;11.372;2023-07-13T01:18:58;36.77;;;9.23;;
18084;SDS011;9169;44.492;11.372;2023-07-13T01:21:31;23.47;;;8.40;;
18084;SDS011;9169;44.492;11.372;2023-07-13T01:24:01;27.10;;;9.77;;
18084;SDS011;9169;44.492;11.372;2023-07-13T01:26:30;31.67;;;12.37;;
18084;SDS011;9169;44.492;11.372;2023-07-13T01:28:58;34.73;;;12.07;;
18084;SDS011;9169;44.492;11.372;2023-07-13T01:31:27;27.50;;;10.67;;
18084;SDS011;9169;44.492;11.372;2023-07-13T01:33:57;34.10;;;11.40;;
18084;SDS011;9169;44.492;11.372;2023-07-13T01:36:26;28.37;;;10.33;;
18084;SDS011;9169;44.492;11.372;2023-07-13T01:38:55;31.60;;;12.50;;
18084;SDS011;9169;44.492;11.372;2023-07-13T01:41:24;25.40;;;9.33;;
18084;SDS011;9169;44.492;11.372;2023-07-13T01:43:53;27.53;;;10.57;;
18084;SDS011;9169;44.492;11.372;2023-07-13T01:46:21;27.10;;;8.17;;
18084;SDS011;9169;44.492;11.372;2023-07-13T01:48:50;24.70;;;7.77;;
18084;SDS011;9169;44.492;11.372;2023-07-13T01:51:19;26.50;;;8.20;;
18084;SDS011;9169;44.492;11.372;2023-07-13T01:53:48;23.47;;;7.47;;
18084;SDS011;9169;44.492;11.372;2023-07-13T01:56:19;20.03;;;7.30;;
18084;SDS011;9169;44.492;11.372;2023-07-13T01:58:47;20.13;;;6.63;;
18084;SDS011;9169;44.492;11.372;2023-07-13T02:01:16;21.50;;;6.60;;
18084;SDS011;9169;44.492;11.372;2023-07-13T02:03:46;19.70;;;6.70;;
18084;SDS011;9169;44.492;11.372;2023-07-13T02:06:14;19.20;;;6.50;;
18084;SDS011;9169;44.492;11.372;2023-07-13T02:08:43;20.27;;;6.60;;
18084;SDS011;9169;44.492;11.372;2023-07-13T02:11:11;19.33;;;5.93;;
18084;SDS011;9169;44.492;11.372;2023-07-13T02:13:41;22.03;;;5.77;;
18084;SDS011;9169;44.492;11.372;2023-07-13T02:16:10;22.23;;;5.70;;
18084;SDS011;9169;44.492;11.372;2023-07-13T02:18:39;19.50;;;5.90;;
18084;SDS011;9169;44.492;11.372;2023-07-13T02:21:07;20.03;;;5.77;;
18084;SDS011;9169;44.492;11.372;2023-07-13T02:23:36;16.70;;;5.60;;
18084;SDS011;9169;44.492;11.372;2023-07-13T02:26:04;16.70;;;4.90;;
18084;SDS011;9169;44.492;11.372;2023-07-13T02:28:33;21.93;;;5.07;;
18084;SDS011;9169;44.492;11.372;2023-07-13T02:31:06;16.50;;;5.70;;
18084;SDS011;9169;44.492;11.372;2023-07-13T02:33:36;21.27;;;4.90;;
18084;SDS011;9169;44.492;11.372;2023-07-13T02:36:04;18.00;;;4.70;;
18084;SDS011;9169;44.492;11.372;2023-07-13T02:38:34;11.20;;;4.50;;
18084;SDS011;9169;44.492;11.372;2023-07-13T02:41:03;12.53;;;4.37;;
18084;SDS011;9169;44.492;11.372;2023-07-13T02:43:32;14.50;;;4.27;;
18084;SDS011;9169;44.492;11.372;2023-07-13T02:46:01;12.70;;;4.10;;
18084;SDS011;9169;44.492;11.372;2023-07-13T02:48:36;15.80;;;4.37;;
18084;SDS011;9169;44.492;11.372;2023-07-13T02:51:08;16.40;;;4.30;;
18084;SDS011;9169;44.492;11.372;2023-07-13T02:53:37;19.73;;;5.20;;
18084;SDS011;9169;44.492;11.372;2023-07-13T02:56:06;20.10;;;4.30;;
18084;SDS011;9169;44.492;11.372;2023-07-13T02:58:35;17.20;;;4.30;;
18084;SDS011;9169;44.492;11.372;2023-07-13T03:01:06;16.53;;;4.53;;
18084;SDS011;9169;44.492;11.372;2023-07-13T03:03:37;15.70;;;4.37;;
18084;SDS011;9169;44.492;11.372;2023-07-13T03:06:06;12.60;;;4.60;;
18084;SDS011;9169;44.492;11.372;2023-07-13T03:08:43;16.97;;;4.20;;
18084;SDS011;9169;44.492;11.372;2023-07-13T03:11:13;19.93;;;4.50;;
18084;SDS011;9169;44.492;11.372;2023-07-13T03:13:45;16.40;;;4.70;;
18084;SDS011;9169;44.492;11.372;2023-07-13T03:16:14;13.90;;;4.27;;
18084;SDS011;9169;44.492;11.372;2023-07-13T03:18:48;14.10;;;4.70;;
18084;SDS011;9169;44.492;11.372;2023-07-13T03:21:17;12.13;;;4.20;;
18084;SDS011;9169;44.492;11.372;2023-07-13T03:23:46;14.07;;;4.03;;
18084;SDS011;9169;44.492;11.372;2023-07-13T03:26:15;14.70;;;4.27;;
18084;SDS011;9169;44.492;11.372;2023-07-13T03:28:47;16.90;;;4.70;;
18084;SDS011;9169;44.492;11.372;2023-07-13T03:31:20;16.53;;;4.53;;
18084;SDS011;9169;44.492;11.372;2023-07-13T03:33:52;15.00;;;4.70;;
18084;SDS011;9169;44.492;11.372;2023-07-13T03:36:21;13.63;;;4.70;;
18084;SDS011;9169;44.492;11.372;2023-07-13T03:38:54;14.17;;;5.00;;
18084;SDS011;9169;44.492;11.372;2023-07-13T03:41:29;13.87;;;4.70;;
18084;SDS011;9169;44.492;11.372;2023-07-13T03:43:58;16.57;;;4.67;;
18084;SDS011;9169;44.492;11.372;2023-07-13T03:46:27;16.80;;;5.60;;
18084;SDS011;9169;44.492;11.372;2023-07-13T03:48:57;19.20;;;5.13;;
18084;SDS011;9169;44.492;11.372;2023-07-13T03:51:26;18.07;;;5.93;;
18084;SDS011;9169;44.492;11.372;2023-07-13T03:53:55;18.20;;;5.10;;
18084;SDS011;9169;44.492;11.372;2023-07-13T03:56:23;13.13;;;4.60;;
18084;SDS011;9169;44.492;11.372;2023-07-13T03:58:52;17.87;;;5.17;;
18084;SDS011;9169;44.492;11.372;2023-07-13T04:01:22;16.37;;;5.77;;
18084;SDS011;9169;44.492;11.372;2023-07-13T04:03:52;16.27;;;5.70;;
18084;SDS011;9169;44.492;11.372;2023-07-13T04:06:25;18.47;;;5.43;;
18084;SDS011;9169;44.492;11.372;2023-07-13T04:08:57;19.80;;;6.03;;
18084;SDS011;9169;44.492;11.372;2023-07-13T04:11:28;14.47;;;5.67;;
18084;SDS011;9169;44.492;11.372;2023-07-13T04:13:59;19.50;;;5.30;;
18084;SDS011;9169;44.492;11.372;2023-07-13T04:16:28;16.80;;;5.60;;
18084;SDS011;9169;44.492;11.372;2023-07-13T04:18:57;16.70;;;5.50;;
18084;SDS011;9169;44.492;11.372;2023-07-13T04:21:29;19.90;;;5.40;;
18084;SDS011;9169;44.492;11.372;2023-07-13T04:23:58;17.70;;;4.37;;
18084;SDS011;9169;44.492;11.372;2023-07-13T04:26:27;14.07;;;5.03;;
18084;SDS011;9169;44.492;11.372;2023-07-13T04:28:55;15.97;;;6.20;;
18084;SDS011;9169;44.492;11.372;2023-07-13T04:31:24;15.23;;;5.00;;
18084;SDS011;9169;44.492;11.372;2023-07-13T04:33:53;18.90;;;5.57;;
18084;SDS011;9169;44.492;11.372;2023-07-13T04:36:21;15.83;;;5.60;;
18084;SDS011;9169;44.492;11.372;2023-07-13T04:38:51;18.33;;;5.27;;
18084;SDS011;9169;44.492;11.372;2023-07-13T04:41:21;18.70;;;8.30;;
18084;SDS011;9169;44.492;11.372;2023-07-13T04:43:50;23.57;;;5.73;;
18084;SDS011;9169;44.492;11.372;2023-07-13T04:46:19;21.37;;;6.10;;
18084;SDS011;9169;44.492;11.372;2023-07-13T04:48:48;15.93;;;5.80;;
18084;SDS011;9169;44.492;11.372;2023-07-13T04:51:19;17.83;;;5.63;;
18084;SDS011;9169;44.492;11.372;2023-07-13T04:53:48;24.53;;;6.23;;
18084;SDS011;9169;44.492;11.372;2023-07-13T04:56:19;15.97;;;5.63;;
18084;SDS011;9169;44.492;11.372;2023-07-13T04:58:48;22.83;;;6.33;;
18084;SDS011;9169;44.492;11.372;2023-07-13T05:01:16;21.33;;;6.90;;
18084;SDS011;9169;44.492;11.372;2023-07-13T05:03:45;14.97;;;4.80;;
18084;SDS011;9169;44.492;11.372;2023-07-13T05:06:14;16.30;;;5.33;;
18084;SDS011;9169;44.492;11.372;2023-07-13T05:08:42;23.30;;;6.40;;
18084;SDS011;9169;44.492;11.372;2023-07-13T05:11:11;16.83;;;6.23;;
18084;SDS011;9169;44.492;11.372;2023-07-13T05:13:40;24.47;;;5.87;;
18084;SDS011;9169;44.492;11.372;2023-07-13T05:16:09;18.13;;;6.07;;
18084;SDS011;9169;44.492;11.372;2023-07-13T05:18:37;16.80;;;4.87;;
18084;SDS011;9169;44.492;11.372;2023-07-13T05:21:08;14.10;;;5.00;;
18084;SDS011;9169;44.492;11.372;2023-07-13T05:23:38;19.90;;;6.07;;
18084;SDS011;9169;44.492;11.372;2023-07-13T05:26:08;15.37;;;5.63;;
18084;SDS011;9169;44.492;11.372;2023-07-13T05:28:37;20.97;;;5.87;;
18084;SDS011;9169;44.492;11.372;2023-07-13T05:31:08;15.70;;;5.27;;
18084;SDS011;9169;44.492;11.372;2023-07-13T05:33:38;17.37;;;5.60;;
18084;SDS011;9169;44.492;11.372;2023-07-13T05:36:06;14.50;;;5.33;;
18084;SDS011;9169;44.492;11.372;2023-07-13T05:38:35;21.70;;;5.90;;
18084;SDS011;9169;44.492;11.372;2023-07-13T05:41:03;18.87;;;5.43;;
18084;SDS011;9169;44.492;11.372;2023-07-13T05:43:32;16.60;;;6.43;;
18084;SDS011;9169;44.492;11.372;2023-07-13T05:46:00;17.43;;;5.23;;
18084;SDS011;9169;44.492;11.372;2023-07-13T05:48:30;16.93;;;5.80;;
18084;SDS011;9169;44.492;11.372;2023-07-13T05:50:59;14.47;;;5.30;;
18084;SDS011;9169;44.492;11.372;2023-07-13T05:53:29;18.60;;;5.67;;
18084;SDS011;9169;44.492;11.372;2023-07-13T05:55:57;19.70;;;5.90;;
18084;SDS011;9169;44.492;11.372;2023-07-13T05:58:27;16.83;;;5.50;;
18084;SDS011;9169;44.492;11.372;2023-07-13T06:00:59;13.33;;;4.60;;
18084;SDS011;9169;44.492;11.372;2023-07-13T06:03:29;19.97;;;5.30;;
18084;SDS011;9169;44.492;11.372;2023-07-13T06:05:59;20.67;;;5.50;;
18084;SDS011;9169;44.492;11.372;2023-07-13T06:08:28;19.53;;;4.10;;
18084;SDS011;9169;44.492;11.372;2023-07-13T06:11:01;20.33;;;5.10;;
18084;SDS011;9169;44.492;11.372;2023-07-13T06:13:31;14.77;;;4.33;;
18084;SDS011;9169;44.492;11.372;2023-07-13T06:16:01;16.90;;;4.40;;
18084;SDS011;9169;44.492;11.372;2023-07-13T06:18:33;19.90;;;4.80;;
18084;SDS011;9169;44.492;11.372;2023-07-13T06:21:05;13.67;;;4.10;;
18084;SDS011;9169;44.492;11.372;2023-07-13T06:23:35;16.00;;;4.70;;
18084;SDS011;9169;44.492;11.372;2023-07-13T06:26:05;11.90;;;4.30;;
18084;SDS011;9169;44.492;11.372;2023-07-13T06:28:34;14.63;;;4.50;;
18084;SDS011;9169;44.492;11.372;2023-07-13T06:31:04;14.07;;;4.10;;
18084;SDS011;9169;44.492;11.372;2023-07-13T06:33:35;14.93;;;4.20;;
18084;SDS011;9169;44.492;11.372;2023-07-13T06:36:05;10.00;;;3.73;;
18084;SDS011;9169;44.492;11.372;2023-07-13T06:38:36;13.83;;;4.43;;
18084;SDS011;9169;44.492;11.372;2023-07-13T06:41:05;16.10;;;3.87;;
18084;SDS011;9169;44.492;11.372;2023-07-13T06:43:34;14.77;;;3.97;;
18084;SDS011;9169;44.492;11.372;2023-07-13T06:46:02;14.73;;;3.73;;
18084;SDS011;9169;44.492;11.372;2023-07-13T06:48:31;11.63;;;3.90;;
18084;SDS011;9169;44.492;11.372;2023-07-13T06:51:01;13.30;;;4.60;;
18084;SDS011;9169;44.492;11.372;2023-07-13T06:53:30;13.70;;;4.20;;
18084;SDS011;9169;44.492;11.372;2023-07-13T06:55:59;16.30;;;4.10;;
18084;SDS011;9169;44.492;11.372;2023-07-13T06:58:27;13.83;;;3.67;;
18084;SDS011;9169;44.492;11.372;2023-07-13T07:00:56;13.40;;;3.57;;
18084;SDS011;9169;44.492;11.372;2023-07-13T07:03:24;11.83;;;3.87;;
18084;SDS011;9169;44.492;11.372;2023-07-13T07:05:53;9.97;;;3.33;;
18084;SDS011;9169;44.492;11.372;2023-07-13T07:08:23;16.83;;;4.43;;
18084;SDS011;9169;44.492;11.372;2023-07-13T07:10:51;12.63;;;3.80;;
18084;SDS011;9169;44.492;11.372;2023-07-13T07:13:20;25.43;;;3.87;;
18084;SDS011;9169;44.492;11.372;2023-07-13T07:15:49;11.20;;;3.80;;
18084;SDS011;9169;44.492;11.372;2023-07-13T07:18:19;12.50;;;4.30;;
18084;SDS011;9169;44.492;11.372;2023-07-13T07:20:48;11.93;;;3.40;;
18084;SDS011;9169;44.492;11.372;2023-07-13T07:23:17;10.13;;;3.77;;
18084;SDS011;9169;44.492;11.372;2023-07-13T07:25:47;12.23;;;3.53;;
18084;SDS011;9169;44.492;11.372;2023-07-13T07:28:16;16.87;;;3.80;;
18084;SDS011;9169;44.492;11.372;2023-07-13T07:30:49;12.53;;;3.77;;
18084;SDS011;9169;44.492;11.372;2023-07-13T07:33:40;11.00;;;4.20;;
18084;SDS011;9169;44.492;11.372;2023-07-13T07:36:09;13.10;;;4.13;;
18084;SDS011;9169;44.492;11.372;2023-07-13T07:38:41;12.63;;;4.87;;
18084;SDS011;9169;44.492;11.372;2023-07-13T07:41:12;17.43;;;4.77;;
18084;SDS011;9169;44.492;11.372;2023-07-13T07:43:44;14.47;;;4.67;;
18084;SDS011;9169;44.492;11.372;2023-07-13T07:46:12;13.80;;;4.00;;
18084;SDS011;9169;44.492;11.372;2023-07-13T07:48:41;18.17;;;4.47;;
18084;SDS011;9169;44.492;11.372;2023-07-13T07:51:10;18.20;;;4.90;;
18084;SDS011;9169;44.492;11.372;2023-07-13T07:53:38;10.50;;;4.40;;
18084;SDS011;9169;44.492;11.372;2023-07-13T07:56:07;12.10;;;4.20;;
18084;SDS011;9169;44.492;11.372;2023-07-13T07:58:40;15.40;;;5.40;;
18084;SDS011;9169;44.492;11.372;2023-07-13T08:01:12;12.03;;;4.67;;
18084;SDS011;9169;44.492;11.372;2023-07-13T08:03:43;13.83;;;4.43;;
18084;SDS011;9169;44.492;11.372;2023-07-13T08:06:15;10.33;;;4.40;;
18084;SDS011;9169;44.492;11.372;2023-07-13T08:08:49;11.63;;;3.80;;
18084;SDS011;9169;44.492;11.372;2023-07-13T08:11:18;16.30;;;4.23;;
18084;SDS011;9169;44.492;11.372;2023-07-13T08:13:50;20.60;;;4.40;;
18084;SDS011;9169;44.492;11.372;2023-07-13T08:16:20;15.13;;;3.80;;
18084;SDS011;9169;44.492;11.372;2023-07-13T08:18:49;11.57;;;4.10;;
18084;SDS011;9169;44.492;11.372;2023-07-13T08:21:18;16.77;;;4.40;;
18084;SDS011;9169;44.492;11.372;2023-07-13T08:23:47;14.60;;;4.30;;
18084;SDS011;9169;44.492;11.372;2023-07-13T08:26:15;11.90;;;4.50;;
18084;SDS011;9169;44.492;11.372;2023-07-13T08:28:44;15.43;;;4.40;;
18084;SDS011;9169;44.492;11.372;2023-07-13T08:31:14;13.80;;;4.53;;
18084;SDS011;9169;44.492;11.372;2023-07-13T08:33:42;15.50;;;4.47;;
18084;SDS011;9169;44.492;11.372;2023-07-13T08:36:11;15.13;;;4.10;;
18084;SDS011;9169;44.492;11.372;2023-07-13T08:38:39;12.67;;;4.80;;
18084;SDS011;9169;44.492;11.372;2023-07-13T08:41:12;11.80;;;4.30;;
18084;SDS011;9169;44.492;11.372;2023-07-13T08:43:43;13.43;;;4.67;;
18084;SDS011;9169;44.492;11.372;2023-07-13T08:46:18;13.93;;;4.97;;
18084;SDS011;9169;44.492;11.372;2023-07-13T08:48:52;13.00;;;4.20;;
18084;SDS011;9169;44.492;11.372;2023-07-13T08:51:28;17.57;;;4.97;;
18084;SDS011;9169;44.492;11.372;2023-07-13T08:54:04;14.77;;;4.47;;
18084;SDS011;9169;44.492;11.372;2023-07-13T08:56:50;11.07;;;4.60;;
18084;SDS011;9169;44.492;11.372;2023-07-13T08:59:21;16.77;;;5.20;;
18084;SDS011;9169;44.492;11.372;2023-07-13T09:01:58;17.20;;;4.73;;
18084;SDS011;9169;44.492;11.372;2023-07-13T09:04:37;18.00;;;5.10;;
18084;SDS011;9169;44.492;11.372;2023-07-13T09:07:13;16.07;;;5.47;;
18084;SDS011;9169;44.492;11.372;2023-07-13T09:09:50;15.27;;;4.93;;
18084;SDS011;9169;44.492;11.372;2023-07-13T09:12:27;18.80;;;6.00;;
18084;SDS011;9169;44.492;11.372;2023-07-13T09:15:02;19.40;;;5.93;;
18084;SDS011;9169;44.492;11.372;2023-07-13T09:17:35;17.43;;;5.87;;
18084;SDS011;9169;44.492;11.372;2023-07-13T09:20:10;16.07;;;6.00;;
18084;SDS011;9169;44.492;11.372;2023-07-13T09:22:50;15.13;;;5.77;;
18084;SDS011;9169;44.492;11.372;2023-07-13T09:25:23;17.77;;;6.90;;
18084;SDS011;9169;44.492;11.372;2023-07-13T09:27:58;18.20;;;6.50;;
18084;SDS011;9169;44.492;11.372;2023-07-13T09:30:32;18.73;;;6.10;;
18084;SDS011;9169;44.492;11.372;2023-07-13T09:33:07;21.83;;;6.10;;
18084;SDS011;9169;44.492;11.372;2023-07-13T09:35:36;19.33;;;6.60;;
18084;SDS011;9169;44.492;11.372;2023-07-13T09:38:11;32.20;;;6.40;;
18084;SDS011;9169;44.492;11.372;2023-07-13T09:40:43;23.60;;;6.53;;
18084;SDS011;9169;44.492;11.372;2023-07-13T09:43:19;23.10;;;7.40;;
18084;SDS011;9169;44.492;11.372;2023-07-13T09:45:49;20.47;;;7.10;;
18084;SDS011;9169;44.492;11.372;2023-07-13T09:48:19;30.93;;;9.23;;
18084;SDS011;9169;44.492;11.372;2023-07-13T09:50:47;28.93;;;10.00;;
18084;SDS011;9169;44.492;11.372;2023-07-13T09:53:18;29.33;;;10.23;;
18084;SDS011;9169;44.492;11.372;2023-07-13T09:55:47;31.27;;;13.20;;
18084;SDS011;9169;44.492;11.372;2023-07-13T09:58:19;37.70;;;11.67;;
18084;SDS011;9169;44.492;11.372;2023-07-13T10:00:54;42.43;;;11.30;;
18084;SDS011;9169;44.492;11.372;2023-07-13T10:03:27;37.33;;;10.27;;
18084;SDS011;9169;44.492;11.372;2023-07-13T10:06:01;38.13;;;12.10;;
18084;SDS011;9169;44.492;11.372;2023-07-13T10:08:38;42.90;;;11.40;;
18084;SDS011;9169;44.492;11.372;2023-07-13T10:11:11;35.93;;;14.50;;
18084;SDS011;9169;44.492;11.372;2023-07-13T10:13:48;36.03;;;11.43;;
18084;SDS011;9169;44.492;11.372;2023-07-13T10:16:20;37.80;;;10.73;;
18084;SDS011;9169;44.492;11.372;2023-07-13T10:18:53;34.67;;;10.13;;
18084;SDS011;9169;44.492;11.372;2023-07-13T10:21:27;30.47;;;9.47;;
18084;SDS011;9169;44.492;11.372;2023-07-13T10:24:03;32.77;;;8.43;;
18084;SDS011;9169;44.492;11.372;2023-07-13T10:26:42;34.67;;;9.07;;
18084;SDS011;9169;44.492;11.372;2023-07-13T10:29:15;33.63;;;9.63;;
18084;SDS011;9169;44.492;11.372;2023-07-13T10:31:46;21.83;;;7.20;;
18084;SDS011;9169;44.492;11.372;2023-07-13T10:34:16;24.03;;;7.13;;
18084;SDS011;9169;44.492;11.372;2023-07-13T10:36:45;24.90;;;8.07;;
18084;SDS011;9169;44.492;11.372;2023-07-13T10:39:16;19.03;;;5.30;;
18084;SDS011;9169;44.492;11.372;2023-07-13T10:41:47;16.60;;;4.73;;
18084;SDS011;9169;44.492;11.372;2023-07-13T10:44:22;19.40;;;6.10;;
18084;SDS011;9169;44.492;11.372;2023-07-13T10:46:55;15.33;;;5.10;;
18084;SDS011;9169;44.492;11.372;2023-07-13T10:49:29;17.40;;;6.50;;
18084;SDS011;9169;44.492;11.372;2023-07-13T10:51:59;14.00;;;5.20;;
18084;SDS011;9169;44.492;11.372;2023-07-13T10:54:30;15.00;;;6.00;;
18084;SDS011;9169;44.492;11.372;2023-07-13T10:57:13;17.70;;;5.37;;
18084;SDS011;9169;44.492;11.372;2023-07-13T10:59:46;16.97;;;6.80;;
18084;SDS011;9169;44.492;11.372;2023-07-13T11:02:21;16.87;;;6.10;;
18084;SDS011;9169;44.492;11.372;2023-07-13T11:04:55;17.60;;;5.33;;
18084;SDS011;9169;44.492;11.372;2023-07-13T11:07:25;16.57;;;6.27;;
18084;SDS011;9169;44.492;11.372;2023-07-13T11:09:56;15.47;;;5.90;;
18084;SDS011;9169;44.492;11.372;2023-07-13T11:12:27;15.63;;;5.63;;
18084;SDS011;9169;44.492;11.372;2023-07-13T11:15:11;14.63;;;5.33;;
18084;SDS011;9169;44.492;11.372;2023-07-13T11:17:47;14.60;;;5.77;;
18084;SDS011;9169;44.492;11.372;2023-07-13T11:20:23;16.80;;;5.30;;
18084;SDS011;9169;44.492;11.372;2023-07-13T11:23:09;15.20;;;5.20;;
18084;SDS011;9169;44.492;11.372;2023-07-13T11:25:46;14.83;;;4.77;;
18084;SDS011;9169;44.492;11.372;2023-07-13T11:28:16;15.63;;;6.37;;
18084;SDS011;9169;44.492;11.372;2023-07-13T11:30:59;17.27;;;5.70;;
18084;SDS011;9169;44.492;11.372;2023-07-13T11:33:45;12.40;;;5.30;;
18084;SDS011;9169;44.492;11.372;2023-07-13T11:36:20;9.67;;;4.83;;
18084;SDS011;9169;44.492;11.372;2023-07-13T11:38:55;19.13;;;4.87;;
18084;SDS011;9169;44.492;11.372;2023-07-13T11:41:28;16.20;;;4.93;;
18084;SDS011;9169;44.492;11.372;2023-07-13T11:44:05;11.83;;;4.83;;
18084;SDS011;9169;44.492;11.372;2023-07-13T11:46:35;11.47;;;6.00;;
18084;SDS011;9169;44.492;11.372;2023-07-13T11:49:04;9.73;;;4.70;;
18084;SDS011;9169;44.492;11.372;2023-07-13T11:51:35;14.07;;;4.73;;
18084;SDS011;9169;44.492;11.372;2023-07-13T11:54:05;11.10;;;5.30;;
18084;SDS011;9169;44.492;11.372;2023-07-13T11:56:41;16.13;;;7.17;;
18084;SDS011;9169;44.492;11.372;2023-07-13T11:59:10;9.07;;;5.32;;
18084;SDS011;9169;44.492;11.372;2023-07-13T12:01:42;10.00;;;5.03;;
18084;SDS011;9169;44.492;11.372;2023-07-13T12:04:19;17.02;;;4.22;;
18084;SDS011;9169;44.492;11.372;2023-07-13T12:07:03;11.05;;;5.95;;
18084;SDS011;9169;44.492;11.372;2023-07-13T12:09:34;14.50;;;4.40;;
18084;SDS011;9169;44.492;11.372;2023-07-13T12:12:03;10.57;;;4.35;;
18084;SDS011;9169;44.492;11.372;2023-07-13T12:14:37;13.00;;;5.15;;
18084;SDS011;9169;44.492;11.372;2023-07-13T12:17:16;14.65;;;5.22;;
18084;SDS011;9169;44.492;11.372;2023-07-13T12:19:47;10.48;;;4.90;;
18084;SDS011;9169;44.492;11.372;2023-07-13T12:22:17;12.00;;;4.43;;
18084;SDS011;9169;44.492;11.372;2023-07-13T12:24:47;11.90;;;4.35;;
18084;SDS011;9169;44.492;11.372;2023-07-13T12:27:19;15.07;;;4.78;;
18084;SDS011;9169;44.492;11.372;2023-07-13T12:29:50;12.82;;;4.63;;
18084;SDS011;9169;44.492;11.372;2023-07-13T12:32:20;13.48;;;5.22;;
18084;SDS011;9169;44.492;11.372;2023-07-13T12:34:51;12.35;;;3.90;;
18084;SDS011;9169;44.492;11.372;2023-07-13T12:37:22;12.32;;;5.07;;
18084;SDS011;9169;44.492;11.372;2023-07-13T12:39:52;9.02;;;4.60;;
18084;SDS011;9169;44.492;11.372;2023-07-13T12:42:21;8.75;;;5.03;;
18084;SDS011;9169;44.492;11.372;2023-07-13T12:44:54;13.80;;;4.95;;
18084;SDS011;9169;44.492;11.372;2023-07-13T12:47:26;10.23;;;4.35;;
18084;SDS011;9169;44.492;11.372;2023-07-13T12:49:55;11.50;;;4.53;;
18084;SDS011;9169;44.492;11.372;2023-07-13T12:52:29;13.07;;;4.22;;
18084;SDS011;9169;44.492;11.372;2023-07-13T12:55:03;13.57;;;4.40;;
18084;SDS011;9169;44.492;11.372;2023-07-13T12:57:40;16.55;;;4.57;;
18084;SDS011;9169;44.492;11.372;2023-07-13T13:02:56;10.00;;;4.72;;
18084;SDS011;9169;44.492;11.372;2023-07-13T13:05:34;11.88;;;4.68;;
18084;SDS011;9169;44.492;11.372;2023-07-13T13:08:07;11.98;;;4.30;;
18084;SDS011;9169;44.492;11.372;2023-07-13T13:10:38;12.88;;;4.05;;
18084;SDS011;9169;44.492;11.372;2023-07-13T13:13:07;10.18;;;4.30;;
18084;SDS011;9169;44.492;11.372;2023-07-13T13:15:36;20.55;;;4.20;;
18084;SDS011;9169;44.492;11.372;2023-07-13T13:18:08;9.55;;;3.80;;
18084;SDS011;9169;44.492;11.372;2023-07-13T13:20:44;13.90;;;4.47;;
18084;SDS011;9169;44.492;11.372;2023-07-13T13:23:16;12.25;;;4.72;;
18084;SDS011;9169;44.492;11.372;2023-07-13T13:25:45;9.15;;;3.88;;
18084;SDS011;9169;44.492;11.372;2023-07-13T13:28:17;8.10;;;3.95;;
18084;SDS011;9169;44.492;11.372;2023-07-13T13:30:48;9.70;;;3.88;;
18084;SDS011;9169;44.492;11.372;2023-07-13T13:33:20;9.52;;;3.90;;
18084;SDS011;9169;44.492;11.372;2023-07-13T13:35:50;11.88;;;3.70;;
18084;SDS011;9169;44.492;11.372;2023-07-13T13:38:22;11.60;;;4.40;;
18084;SDS011;9169;44.492;11.372;2023-07-13T13:40:53;8.75;;;3.88;;
18084;SDS011;9169;44.492;11.372;2023-07-13T13:43:23;7.47;;;3.08;;
18084;SDS011;9169;44.492;11.372;2023-07-13T13:45:54;8.40;;;3.88;;
18084;SDS011;9169;44.492;11.372;2023-07-13T13:48:26;13.18;;;3.42;;
18084;SDS011;9169;44.492;11.372;2023-07-13T13:50:59;8.30;;;3.67;;
18084;SDS011;9169;44.492;11.372;2023-07-13T13:53:30;7.55;;;2.95;;
18084;SDS011;9169;44.492;11.372;2023-07-13T13:55:58;9.68;;;3.63;;
18084;SDS011;9169;44.492;11.372;2023-07-13T13:58:27;7.03;;;3.47;;
18084;SDS011;9169;44.492;11.372;2023-07-13T14:00:56;7.43;;;3.55;;
18084;SDS011;9169;44.492;11.372;2023-07-13T14:03:25;10.07;;;3.95;;
18084;SDS011;9169;44.492;11.372;2023-07-13T14:05:54;9.77;;;3.50;;
18084;SDS011;9169;44.492;11.372;2023-07-13T14:08:24;8.70;;;3.60;;
18084;SDS011;9169;44.492;11.372;2023-07-13T14:10:55;7.65;;;3.30;;
18084;SDS011;9169;44.492;11.372;2023-07-13T14:13:39;9.23;;;3.95;;
18084;SDS011;9169;44.492;11.372;2023-07-13T14:16:11;7.10;;;3.17;;
18084;SDS011;9169;44.492;11.372;2023-07-13T14:18:44;10.27;;;3.67;;
18084;SDS011;9169;44.492;11.372;2023-07-13T14:21:15;9.48;;;3.47;;
18084;SDS011;9169;44.492;11.372;2023-07-13T14:23:46;9.32;;;3.30;;
18084;SDS011;9169;44.492;11.372;2023-07-13T14:26:18;12.27;;;3.60;;
18084;SDS011;9169;44.492;11.372;2023-07-13T14:28:49;7.28;;;3.40;;
18084;SDS011;9169;44.492;11.372;2023-07-13T14:31:20;7.60;;;3.88;;
18084;SDS011;9169;44.492;11.372;2023-07-13T14:33:53;11.90;;;3.95;;
18084;SDS011;9169;44.492;11.372;2023-07-13T14:36:25;11.98;;;3.95;;
18084;SDS011;9169;44.492;11.372;2023-07-13T14:38:56;10.98;;;3.90;;
18084;SDS011;9169;44.492;11.372;2023-07-13T14:41:27;8.45;;;3.60;;
18084;SDS011;9169;44.492;11.372;2023-07-13T14:43:56;7.85;;;3.70;;
18084;SDS011;9169;44.492;11.372;2023-07-13T14:46:27;12.77;;;4.03;;
18084;SDS011;9169;44.492;11.372;2023-07-13T14:48:59;9.85;;;4.13;;
18084;SDS011;9169;44.492;11.372;2023-07-13T14:51:31;8.90;;;3.90;;
18084;SDS011;9169;44.492;11.372;2023-07-13T14:54:01;12.68;;;3.78;;
18084;SDS011;9169;44.492;11.372;2023-07-13T14:56:33;12.18;;;3.90;;
18084;SDS011;9169;44.492;11.372;2023-07-13T14:59:01;11.20;;;3.72;;
18084;SDS011;9169;44.492;11.372;2023-07-13T15:01:34;9.35;;;3.90;;